Aeroporto :
LOGIN :

Iscrizione | Disclaimer

   EN    FR    IT 

 










Sommario :    VFR   VFR Marginale   IFR   IFR Intensivo   IFR Molto Intensivo
Visibilità : 
Base nubi : 
>= 8 km
>= 3000ft
5 / 8 km
1000 / 3000 ft
1500m / 5 km
500 / 1000 ft
800 / 1500m
200 / 500 ft
< 800m
< 200 ft
Simboli :   Temporali  Nebbia  Neve Forte  Precipitazioni Forti  Vento > 20 kt
SIGMETs :   Varie  Temporali  Ghiacco  Turbolenza  Onda orograficha  Ceneri Vulcaniche






- Altitudine del aeroporto : 1708 ft
- Codice IATA : SJJ


LQSA - Sarajevo

ULTIMO METAR :
  • 150930Z VRB04KT 9999 FEW050 22/09 Q1015 NOSIG

METARs OBSOLETI :
  • 150900Z VRB04KT 9999 FEW050 21/10 Q1015 NOSIG
  • 150830Z VRB02KT 9999 FEW045 20/11 Q1015 NOSIG
  • 150800Z VRB02KT 9999 FEW045 19/11 Q1015 NOSIG
  • 150730Z VRB03KT 9999 FEW045 17/11 Q1015 NOSIG
  • 150700Z VRB01KT 9999 FEW045 16/11 Q1016 NOSIG

TAF TAF LQSA
Valido dal 15 a 06 ore il 16 a 06 ore UTC


150500Z 1506/1606 16005KT CAVOK TX25/1514Z TN10/1604Z



MetMap, La meteo Aeronautica in un colpo d'occhio ! - Copyright ORBIFLY Dicembre 2007 - Disclaimer

ORBIFLY MET'MAP TEAM :

Programmazione e sviluppo : Alexandra Zaïnal
Concezione : Baudouin d'Aumeries
Aiuto per la programmazione : Marc-Olivier Méhu
Supporto tecnico e logistico : Manuel Goepfert
Aiuto per la traduzione : Arnaldo La Scala

Contatto : metmap@orbifly.com




FONTI E CREDITI :

   NOAA